sensor_id;sensor_type;location;lat;lon;timestamp;P1;durP1;ratioP1;P2;durP2;ratioP2
72904;SDS011;61048;52.162;4.516;2023-10-13T00:01:02;2.75;;;0.60;;
72904;SDS011;61048;52.162;4.516;2023-10-13T00:03:32;2.75;;;0.50;;
72904;SDS011;61048;52.162;4.516;2023-10-13T00:05:59;2.17;;;0.60;;
72904;SDS011;61048;52.162;4.516;2023-10-13T00:08:28;2.40;;;0.80;;
72904;SDS011;61048;52.162;4.516;2023-10-13T00:10:55;3.78;;;0.40;;
72904;SDS011;61048;52.162;4.516;2023-10-13T00:13:27;2.47;;;0.50;;
72904;SDS011;61048;52.162;4.516;2023-10-13T00:15:57;3.72;;;1.20;;
72904;SDS011;61048;52.162;4.516;2023-10-13T00:18:24;2.00;;;0.50;;
72904;SDS011;61048;52.162;4.516;2023-10-13T00:20:55;2.05;;;0.50;;
72904;SDS011;61048;52.162;4.516;2023-10-13T00:23:23;3.28;;;1.25;;
72904;SDS011;61048;52.162;4.516;2023-10-13T00:25:52;1.85;;;0.30;;
72904;SDS011;61048;52.162;4.516;2023-10-13T00:28:24;3.70;;;0.40;;
72904;SDS011;61048;52.162;4.516;2023-10-13T00:30:54;3.67;;;1.30;;
72904;SDS011;61048;52.162;4.516;2023-10-13T00:33:28;1.27;;;0.50;;
72904;SDS011;61048;52.162;4.516;2023-10-13T00:35:57;2.13;;;0.50;;
72904;SDS011;61048;52.162;4.516;2023-10-13T00:38:26;2.95;;;1.05;;
72904;SDS011;61048;52.162;4.516;2023-10-13T00:40:53;2.55;;;0.30;;
72904;SDS011;61048;52.162;4.516;2023-10-13T00:43:21;1.55;;;0.40;;
72904;SDS011;61048;52.162;4.516;2023-10-13T00:46:02;2.20;;;0.40;;
72904;SDS011;61048;52.162;4.516;2023-10-13T00:48:37;2.80;;;0.88;;
72904;SDS011;61048;52.162;4.516;2023-10-13T00:51:08;2.33;;;0.35;;
72904;SDS011;61048;52.162;4.516;2023-10-13T00:53:43;3.00;;;0.45;;
72904;SDS011;61048;52.162;4.516;2023-10-13T00:56:12;2.15;;;0.50;;
72904;SDS011;61048;52.162;4.516;2023-10-13T00:58:44;1.45;;;0.50;;
72904;SDS011;61048;52.162;4.516;2023-10-13T01:01:12;3.00;;;0.30;;
72904;SDS011;61048;52.162;4.516;2023-10-13T01:03:48;1.90;;;0.50;;
72904;SDS011;61048;52.162;4.516;2023-10-13T01:06:17;1.75;;;0.57;;
72904;SDS011;61048;52.162;4.516;2023-10-13T01:08:45;2.47;;;0.43;;
72904;SDS011;61048;52.162;4.516;2023-10-13T01:11:16;2.15;;;0.88;;
72904;SDS011;61048;52.162;4.516;2023-10-13T01:13:43;2.72;;;0.40;;
72904;SDS011;61048;52.162;4.516;2023-10-13T01:16:13;2.20;;;0.70;;
72904;SDS011;61048;52.162;4.516;2023-10-13T01:18:41;3.30;;;1.17;;
72904;SDS011;61048;52.162;4.516;2023-10-13T01:21:13;3.25;;;0.70;;
72904;SDS011;61048;52.162;4.516;2023-10-13T01:26:13;3.20;;;0.50;;
72904;SDS011;61048;52.162;4.516;2023-10-13T01:28:47;1.85;;;0.57;;
72904;SDS011;61048;52.162;4.516;2023-10-13T01:31:13;1.92;;;0.55;;
72904;SDS011;61048;52.162;4.516;2023-10-13T01:33:49;2.75;;;0.80;;
72904;SDS011;61048;52.162;4.516;2023-10-13T01:36:18;1.92;;;0.85;;
72904;SDS011;61048;52.162;4.516;2023-10-13T01:38:46;3.05;;;1.05;;
72904;SDS011;61048;52.162;4.516;2023-10-13T01:41:13;4.55;;;1.55;;
72904;SDS011;61048;52.162;4.516;2023-10-13T01:43:41;2.53;;;0.70;;
72904;SDS011;61048;52.162;4.516;2023-10-13T01:46:07;2.50;;;0.73;;
72904;SDS011;61048;52.162;4.516;2023-10-13T01:48:34;3.25;;;1.23;;
72904;SDS011;61048;52.162;4.516;2023-10-13T01:51:04;2.53;;;0.70;;
72904;SDS011;61048;52.162;4.516;2023-10-13T01:53:35;2.10;;;0.60;;
72904;SDS011;61048;52.162;4.516;2023-10-13T01:56:01;3.08;;;0.80;;
72904;SDS011;61048;52.162;4.516;2023-10-13T01:58:32;2.67;;;0.75;;
72904;SDS011;61048;52.162;4.516;2023-10-13T02:00:59;1.80;;;0.65;;
72904;SDS011;61048;52.162;4.516;2023-10-13T02:03:27;3.58;;;0.80;;
72904;SDS011;61048;52.162;4.516;2023-10-13T02:05:55;3.13;;;1.30;;
72904;SDS011;61048;52.162;4.516;2023-10-13T02:08:30;3.03;;;0.70;;
72904;SDS011;61048;52.162;4.516;2023-10-13T02:10:57;2.03;;;1.00;;
72904;SDS011;61048;52.162;4.516;2023-10-13T02:13:26;4.25;;;0.93;;
72904;SDS011;61048;52.162;4.516;2023-10-13T02:15:56;2.45;;;1.23;;
72904;SDS011;61048;52.162;4.516;2023-10-13T02:18:28;2.33;;;0.75;;
72904;SDS011;61048;52.162;4.516;2023-10-13T02:21:02;3.10;;;0.93;;
72904;SDS011;61048;52.162;4.516;2023-10-13T02:23:30;2.97;;;0.90;;
72904;SDS011;61048;52.162;4.516;2023-10-13T02:25:59;1.83;;;0.60;;
72904;SDS011;61048;52.162;4.516;2023-10-13T02:28:36;1.50;;;0.65;;
72904;SDS011;61048;52.162;4.516;2023-10-13T02:31:03;3.67;;;0.85;;
72904;SDS011;61048;52.162;4.516;2023-10-13T02:33:31;2.45;;;1.08;;
72904;SDS011;61048;52.162;4.516;2023-10-13T02:35:58;2.35;;;0.77;;
72904;SDS011;61048;52.162;4.516;2023-10-13T02:38:29;3.10;;;0.85;;
72904;SDS011;61048;52.162;4.516;2023-10-13T02:41:00;3.13;;;1.10;;
72904;SDS011;61048;52.162;4.516;2023-10-13T02:43:31;2.15;;;0.65;;
72904;SDS011;61048;52.162;4.516;2023-10-13T02:45:58;1.67;;;0.73;;
72904;SDS011;61048;52.162;4.516;2023-10-13T02:48:28;2.65;;;0.85;;
72904;SDS011;61048;52.162;4.516;2023-10-13T02:50:59;4.15;;;1.40;;
72904;SDS011;61048;52.162;4.516;2023-10-13T02:53:31;3.55;;;0.90;;
72904;SDS011;61048;52.162;4.516;2023-10-13T02:55:58;4.53;;;1.45;;
72904;SDS011;61048;52.162;4.516;2023-10-13T02:58:30;3.63;;;1.45;;
72904;SDS011;61048;52.162;4.516;2023-10-13T03:01:05;3.90;;;0.90;;
72904;SDS011;61048;52.162;4.516;2023-10-13T03:03:43;2.65;;;1.00;;
72904;SDS011;61048;52.162;4.516;2023-10-13T03:06:13;3.22;;;1.67;;
72904;SDS011;61048;52.162;4.516;2023-10-13T03:08:39;2.00;;;0.90;;
72904;SDS011;61048;52.162;4.516;2023-10-13T03:11:08;2.90;;;1.02;;
72904;SDS011;61048;52.162;4.516;2023-10-13T03:13:34;3.70;;;1.27;;
72904;SDS011;61048;52.162;4.516;2023-10-13T03:16:10;1.90;;;0.85;;
72904;SDS011;61048;52.162;4.516;2023-10-13T03:18:37;5.28;;;1.40;;
72904;SDS011;61048;52.162;4.516;2023-10-13T03:21:06;1.75;;;1.00;;
72904;SDS011;61048;52.162;4.516;2023-10-13T03:23:33;3.60;;;1.20;;
72904;SDS011;61048;52.162;4.516;2023-10-13T03:26:10;2.22;;;0.90;;
72904;SDS011;61048;52.162;4.516;2023-10-13T03:28:41;3.40;;;1.73;;
72904;SDS011;61048;52.162;4.516;2023-10-13T03:31:11;2.35;;;1.10;;
72904;SDS011;61048;52.162;4.516;2023-10-13T03:33:43;2.95;;;1.40;;
72904;SDS011;61048;52.162;4.516;2023-10-13T03:36:12;3.80;;;1.08;;
72904;SDS011;61048;52.162;4.516;2023-10-13T03:39:00;2.30;;;0.95;;
72904;SDS011;61048;52.162;4.516;2023-10-13T03:41:32;2.75;;;1.98;;
72904;SDS011;61048;52.162;4.516;2023-10-13T03:44:02;3.03;;;1.10;;
72904;SDS011;61048;52.162;4.516;2023-10-13T03:46:37;2.70;;;1.13;;
72904;SDS011;61048;52.162;4.516;2023-10-13T03:49:06;2.90;;;1.05;;
72904;SDS011;61048;52.162;4.516;2023-10-13T03:51:39;2.75;;;0.88;;
72904;SDS011;61048;52.162;4.516;2023-10-13T03:54:07;2.22;;;1.10;;
72904;SDS011;61048;52.162;4.516;2023-10-13T03:56:35;2.95;;;1.00;;
72904;SDS011;61048;52.162;4.516;2023-10-13T03:59:05;2.17;;;0.82;;
72904;SDS011;61048;52.162;4.516;2023-10-13T04:01:35;3.40;;;0.95;;
72904;SDS011;61048;52.162;4.516;2023-10-13T04:04:11;2.72;;;1.63;;
72904;SDS011;61048;52.162;4.516;2023-10-13T04:06:41;3.85;;;1.50;;
72904;SDS011;61048;52.162;4.516;2023-10-13T04:09:20;3.17;;;0.98;;
72904;SDS011;61048;52.162;4.516;2023-10-13T04:12:05;2.85;;;0.88;;
72904;SDS011;61048;52.162;4.516;2023-10-13T04:15:08;2.55;;;1.63;;
72904;SDS011;61048;52.162;4.516;2023-10-13T04:17:43;4.90;;;2.05;;
72904;SDS011;61048;52.162;4.516;2023-10-13T04:20:11;5.15;;;1.05;;
72904;SDS011;61048;52.162;4.516;2023-10-13T04:22:41;1.90;;;1.02;;
72904;SDS011;61048;52.162;4.516;2023-10-13T04:25:34;2.30;;;1.02;;
72904;SDS011;61048;52.162;4.516;2023-10-13T04:28:17;2.95;;;0.90;;
72904;SDS011;61048;52.162;4.516;2023-10-13T04:30:58;1.80;;;1.50;;
72904;SDS011;61048;52.162;4.516;2023-10-13T04:33:37;1.80;;;0.73;;
72904;SDS011;61048;52.162;4.516;2023-10-13T04:36:18;3.85;;;0.57;;
72904;SDS011;61048;52.162;4.516;2023-10-13T04:39:02;1.70;;;0.70;;
72904;SDS011;61048;52.162;4.516;2023-10-13T04:41:36;1.80;;;1.15;;
72904;SDS011;61048;52.162;4.516;2023-10-13T04:44:04;2.95;;;0.82;;
72904;SDS011;61048;52.162;4.516;2023-10-13T04:46:46;2.65;;;0.80;;
72904;SDS011;61048;52.162;4.516;2023-10-13T04:49:34;1.90;;;0.65;;
72904;SDS011;61048;52.162;4.516;2023-10-13T04:52:14;1.80;;;0.65;;
72904;SDS011;61048;52.162;4.516;2023-10-13T04:55:05;2.75;;;0.90;;
72904;SDS011;61048;52.162;4.516;2023-10-13T04:57:42;3.15;;;1.25;;
72904;SDS011;61048;52.162;4.516;2023-10-13T05:00:25;54.35;;;11.40;;
72904;SDS011;61048;52.162;4.516;2023-10-13T05:03:18;69.85;;;16.30;;
72904;SDS011;61048;52.162;4.516;2023-10-13T05:06:05;70.13;;;17.02;;
72904;SDS011;61048;52.162;4.516;2023-10-13T05:08:52;87.15;;;18.58;;
72904;SDS011;61048;52.162;4.516;2023-10-13T05:11:41;68.00;;;15.82;;
72904;SDS011;61048;52.162;4.516;2023-10-13T05:14:26;69.30;;;16.55;;
72904;SDS011;61048;52.162;4.516;2023-10-13T05:17:11;61.83;;;15.30;;
72904;SDS011;61048;52.162;4.516;2023-10-13T05:20:01;67.68;;;15.07;;
72904;SDS011;61048;52.162;4.516;2023-10-13T05:22:46;68.57;;;16.23;;
72904;SDS011;61048;52.162;4.516;2023-10-13T05:25:34;63.92;;;16.02;;
72904;SDS011;61048;52.162;4.516;2023-10-13T05:28:20;59.38;;;14.70;;
72904;SDS011;61048;52.162;4.516;2023-10-13T05:31:14;60.42;;;14.20;;
72904;SDS011;61048;52.162;4.516;2023-10-13T05:33:59;47.17;;;12.60;;
72904;SDS011;61048;52.162;4.516;2023-10-13T05:36:58;52.58;;;13.52;;
72904;SDS011;61048;52.162;4.516;2023-10-13T05:39:43;50.53;;;13.18;;
72904;SDS011;61048;52.162;4.516;2023-10-13T05:42:27;44.40;;;11.40;;
72904;SDS011;61048;52.162;4.516;2023-10-13T05:45:16;39.83;;;10.75;;
72904;SDS011;61048;52.162;4.516;2023-10-13T05:48:02;41.10;;;10.63;;
72904;SDS011;61048;52.162;4.516;2023-10-13T05:50:36;49.47;;;11.77;;
72904;SDS011;61048;52.162;4.516;2023-10-13T05:53:36;38.50;;;10.85;;
72904;SDS011;61048;52.162;4.516;2023-10-13T05:56:21;29.05;;;9.13;;
72904;SDS011;61048;52.162;4.516;2023-10-13T05:59:05;36.03;;;8.50;;
72904;SDS011;61048;52.162;4.516;2023-10-13T06:01:51;31.40;;;7.88;;
72904;SDS011;61048;52.162;4.516;2023-10-13T06:04:36;30.40;;;8.02;;
72904;SDS011;61048;52.162;4.516;2023-10-13T06:07:21;35.90;;;9.70;;
72904;SDS011;61048;52.162;4.516;2023-10-13T06:10:06;30.27;;;8.43;;
72904;SDS011;61048;52.162;4.516;2023-10-13T06:12:51;25.92;;;6.95;;
72904;SDS011;61048;52.162;4.516;2023-10-13T06:15:36;23.05;;;5.53;;
72904;SDS011;61048;52.162;4.516;2023-10-13T06:18:22;23.23;;;5.97;;
72904;SDS011;61048;52.162;4.516;2023-10-13T06:21:07;21.70;;;5.70;;
72904;SDS011;61048;52.162;4.516;2023-10-13T06:23:52;28.55;;;6.20;;
72904;SDS011;61048;52.162;4.516;2023-10-13T06:26:36;20.38;;;5.68;;
72904;SDS011;61048;52.162;4.516;2023-10-13T06:29:21;21.98;;;5.82;;
72904;SDS011;61048;52.162;4.516;2023-10-13T06:31:48;18.13;;;5.50;;
72904;SDS011;61048;52.162;4.516;2023-10-13T06:34:17;16.60;;;4.95;;
72904;SDS011;61048;52.162;4.516;2023-10-13T06:36:46;17.88;;;5.03;;
72904;SDS011;61048;52.162;4.516;2023-10-13T06:39:13;17.17;;;4.35;;
72904;SDS011;61048;52.162;4.516;2023-10-13T06:42:00;16.58;;;4.25;;
72904;SDS011;61048;52.162;4.516;2023-10-13T06:44:28;16.65;;;4.22;;
72904;SDS011;61048;52.162;4.516;2023-10-13T06:46:57;18.45;;;5.10;;
72904;SDS011;61048;52.162;4.516;2023-10-13T06:49:26;13.80;;;4.03;;
72904;SDS011;61048;52.162;4.516;2023-10-13T06:51:54;11.23;;;3.67;;
72904;SDS011;61048;52.162;4.516;2023-10-13T06:54:25;13.90;;;4.30;;
72904;SDS011;61048;52.162;4.516;2023-10-13T06:56:53;15.70;;;3.85;;
72904;SDS011;61048;52.162;4.516;2023-10-13T06:59:21;14.93;;;3.65;;
72904;SDS011;61048;52.162;4.516;2023-10-13T07:01:52;12.63;;;3.97;;
72904;SDS011;61048;52.162;4.516;2023-10-13T07:04:19;14.43;;;3.95;;
72904;SDS011;61048;52.162;4.516;2023-10-13T07:06:48;10.02;;;3.78;;
72904;SDS011;61048;52.162;4.516;2023-10-13T07:09:15;11.57;;;3.60;;
72904;SDS011;61048;52.162;4.516;2023-10-13T07:14:27;11.55;;;3.58;;
72904;SDS011;61048;52.162;4.516;2023-10-13T07:16:59;10.80;;;3.47;;
72904;SDS011;61048;52.162;4.516;2023-10-13T07:19:28;12.48;;;4.60;;
72904;SDS011;61048;52.162;4.516;2023-10-13T07:21:57;9.50;;;2.92;;
72904;SDS011;61048;52.162;4.516;2023-10-13T07:24:25;10.85;;;3.03;;
72904;SDS011;61048;52.162;4.516;2023-10-13T07:26:56;10.23;;;2.97;;
72904;SDS011;61048;52.162;4.516;2023-10-13T07:29:29;9.98;;;2.50;;
72904;SDS011;61048;52.162;4.516;2023-10-13T07:31:59;9.38;;;3.95;;
72904;SDS011;61048;52.162;4.516;2023-10-13T07:34:27;7.55;;;2.50;;
72904;SDS011;61048;52.162;4.516;2023-10-13T07:36:59;9.93;;;4.35;;
72904;SDS011;61048;52.162;4.516;2023-10-13T07:39:28;9.50;;;3.92;;
72904;SDS011;61048;52.162;4.516;2023-10-13T07:41:58;8.57;;;2.80;;
72904;SDS011;61048;52.162;4.516;2023-10-13T07:46:58;8.43;;;3.00;;
72904;SDS011;61048;52.162;4.516;2023-10-13T07:49:29;8.77;;;2.42;;
72904;SDS011;61048;52.162;4.516;2023-10-13T07:52:03;10.45;;;3.05;;
72904;SDS011;61048;52.162;4.516;2023-10-13T07:54:49;9.35;;;2.80;;
72904;SDS011;61048;52.162;4.516;2023-10-13T07:57:24;6.95;;;2.83;;
72904;SDS011;61048;52.162;4.516;2023-10-13T07:59:54;8.88;;;2.97;;
72904;SDS011;61048;52.162;4.516;2023-10-13T08:02:33;5.55;;;2.83;;
72904;SDS011;61048;52.162;4.516;2023-10-13T08:05:14;6.40;;;2.85;;
72904;SDS011;61048;52.162;4.516;2023-10-13T08:07:51;7.32;;;2.80;;
72904;SDS011;61048;52.162;4.516;2023-10-13T08:10:18;8.95;;;2.47;;
72904;SDS011;61048;52.162;4.516;2023-10-13T08:12:50;7.07;;;2.10;;
72904;SDS011;61048;52.162;4.516;2023-10-13T08:15:19;9.50;;;2.40;;
72904;SDS011;61048;52.162;4.516;2023-10-13T08:17:57;7.10;;;2.50;;
72904;SDS011;61048;52.162;4.516;2023-10-13T08:20:28;6.95;;;2.85;;
72904;SDS011;61048;52.162;4.516;2023-10-13T08:23:04;6.70;;;2.88;;
72904;SDS011;61048;52.162;4.516;2023-10-13T08:25:48;9.48;;;2.20;;
72904;SDS011;61048;52.162;4.516;2023-10-13T08:28:33;13.77;;;2.60;;
72904;SDS011;61048;52.162;4.516;2023-10-13T08:31:19;10.27;;;3.00;;
72904;SDS011;61048;52.162;4.516;2023-10-13T08:33:47;13.10;;;3.70;;
72904;SDS011;61048;52.162;4.516;2023-10-13T08:36:14;7.13;;;2.53;;
72904;SDS011;61048;52.162;4.516;2023-10-13T08:41:21;7.18;;;2.40;;
72904;SDS011;61048;52.162;4.516;2023-10-13T08:43:55;9.65;;;3.33;;
72904;SDS011;61048;52.162;4.516;2023-10-13T08:46:29;7.93;;;2.78;;
72904;SDS011;61048;52.162;4.516;2023-10-13T08:49:16;5.60;;;2.40;;
72904;SDS011;61048;52.162;4.516;2023-10-13T08:51:48;5.22;;;2.22;;
72904;SDS011;61048;52.162;4.516;2023-10-13T08:54:24;6.53;;;2.00;;
72904;SDS011;61048;52.162;4.516;2023-10-13T08:57:12;8.25;;;2.03;;
72904;SDS011;61048;52.162;4.516;2023-10-13T09:00:02;7.45;;;2.08;;
72904;SDS011;61048;52.162;4.516;2023-10-13T09:02:43;8.27;;;2.83;;
72904;SDS011;61048;52.162;4.516;2023-10-13T09:05:46;7.68;;;2.50;;
72904;SDS011;61048;52.162;4.516;2023-10-13T09:08:26;8.18;;;2.13;;
72904;SDS011;61048;52.162;4.516;2023-10-13T09:11:01;9.50;;;2.85;;
72904;SDS011;61048;52.162;4.516;2023-10-13T09:13:37;6.43;;;2.38;;
72904;SDS011;61048;52.162;4.516;2023-10-13T09:16:11;6.18;;;2.03;;
72904;SDS011;61048;52.162;4.516;2023-10-13T09:19:07;7.18;;;2.45;;
72904;SDS011;61048;52.162;4.516;2023-10-13T09:21:40;8.32;;;2.58;;
72904;SDS011;61048;52.162;4.516;2023-10-13T09:24:12;8.93;;;2.13;;
72904;SDS011;61048;52.162;4.516;2023-10-13T09:26:46;8.95;;;2.67;;
72904;SDS011;61048;52.162;4.516;2023-10-13T09:29:16;7.95;;;2.00;;
72904;SDS011;61048;52.162;4.516;2023-10-13T09:31:46;5.68;;;2.10;;
72904;SDS011;61048;52.162;4.516;2023-10-13T09:34:20;10.02;;;2.33;;
72904;SDS011;61048;52.162;4.516;2023-10-13T09:36:48;9.10;;;2.58;;
72904;SDS011;61048;52.162;4.516;2023-10-13T09:39:21;7.15;;;2.53;;
72904;SDS011;61048;52.162;4.516;2023-10-13T09:41:59;7.63;;;2.67;;
72904;SDS011;61048;52.162;4.516;2023-10-13T09:44:27;8.32;;;2.30;;
72904;SDS011;61048;52.162;4.516;2023-10-13T09:46:57;7.43;;;2.35;;
72904;SDS011;61048;52.162;4.516;2023-10-13T09:49:32;7.93;;;2.17;;
72904;SDS011;61048;52.162;4.516;2023-10-13T09:52:10;6.55;;;1.90;;
72904;SDS011;61048;52.162;4.516;2023-10-13T09:54:44;6.18;;;2.38;;
72904;SDS011;61048;52.162;4.516;2023-10-13T09:57:15;7.07;;;2.00;;
72904;SDS011;61048;52.162;4.516;2023-10-13T09:59:46;7.15;;;2.53;;
72904;SDS011;61048;52.162;4.516;2023-10-13T10:02:17;6.53;;;1.98;;
72904;SDS011;61048;52.162;4.516;2023-10-13T10:04:50;10.32;;;2.50;;
72904;SDS011;61048;52.162;4.516;2023-10-13T10:07:23;6.55;;;2.10;;
72904;SDS011;61048;52.162;4.516;2023-10-13T10:09:56;5.85;;;2.25;;
72904;SDS011;61048;52.162;4.516;2023-10-13T10:12:27;8.68;;;2.35;;
72904;SDS011;61048;52.162;4.516;2023-10-13T10:15:07;7.20;;;2.35;;
72904;SDS011;61048;52.162;4.516;2023-10-13T10:17:39;6.47;;;2.22;;
72904;SDS011;61048;52.162;4.516;2023-10-13T10:20:07;7.13;;;2.80;;
72904;SDS011;61048;52.162;4.516;2023-10-13T10:22:55;5.88;;;1.92;;
72904;SDS011;61048;52.162;4.516;2023-10-13T10:25:28;6.45;;;2.50;;
72904;SDS011;61048;52.162;4.516;2023-10-13T10:28:01;6.78;;;2.17;;
72904;SDS011;61048;52.162;4.516;2023-10-13T10:30:32;8.13;;;1.90;;
72904;SDS011;61048;52.162;4.516;2023-10-13T10:33:00;9.93;;;2.17;;
72904;SDS011;61048;52.162;4.516;2023-10-13T10:35:32;8.60;;;2.00;;
72904;SDS011;61048;52.162;4.516;2023-10-13T10:38:06;6.00;;;1.90;;
72904;SDS011;61048;52.162;4.516;2023-10-13T10:40:50;8.30;;;3.28;;
72904;SDS011;61048;52.162;4.516;2023-10-13T10:43:22;8.90;;;2.95;;
72904;SDS011;61048;52.162;4.516;2023-10-13T10:45:52;7.10;;;2.28;;
72904;SDS011;61048;52.162;4.516;2023-10-13T10:48:24;7.47;;;2.80;;
72904;SDS011;61048;52.162;4.516;2023-10-13T10:50:57;7.68;;;2.38;;
72904;SDS011;61048;52.162;4.516;2023-10-13T10:53:31;6.40;;;1.98;;
72904;SDS011;61048;52.162;4.516;2023-10-13T10:56:08;6.85;;;2.47;;
72904;SDS011;61048;52.162;4.516;2023-10-13T10:58:45;6.65;;;2.25;;
72904;SDS011;61048;52.162;4.516;2023-10-13T11:01:13;8.30;;;2.10;;
72904;SDS011;61048;52.162;4.516;2023-10-13T11:03:52;7.43;;;2.50;;
72904;SDS011;61048;52.162;4.516;2023-10-13T11:06:22;7.00;;;2.20;;
72904;SDS011;61048;52.162;4.516;2023-10-13T11:09:00;7.78;;;2.78;;
72904;SDS011;61048;52.162;4.516;2023-10-13T11:14:00;7.60;;;2.97;;
72904;SDS011;61048;52.162;4.516;2023-10-13T11:16:47;7.57;;;2.55;;
72904;SDS011;61048;52.162;4.516;2023-10-13T11:19:18;7.88;;;2.42;;
72904;SDS011;61048;52.162;4.516;2023-10-13T11:21:53;14.18;;;3.40;;
72904;SDS011;61048;52.162;4.516;2023-10-13T11:24:21;6.72;;;2.15;;
72904;SDS011;61048;52.162;4.516;2023-10-13T11:26:48;8.55;;;2.75;;
72904;SDS011;61048;52.162;4.516;2023-10-13T11:29:17;4.82;;;2.10;;
72904;SDS011;61048;52.162;4.516;2023-10-13T11:31:49;11.40;;;3.55;;
72904;SDS011;61048;52.162;4.516;2023-10-13T11:34:23;8.63;;;2.42;;
72904;SDS011;61048;52.162;4.516;2023-10-13T11:36:55;6.90;;;2.17;;
72904;SDS011;61048;52.162;4.516;2023-10-13T11:39:45;10.00;;;3.05;;
72904;SDS011;61048;52.162;4.516;2023-10-13T11:42:12;6.32;;;2.83;;
72904;SDS011;61048;52.162;4.516;2023-10-13T11:44:42;5.95;;;3.40;;
72904;SDS011;61048;52.162;4.516;2023-10-13T11:47:11;8.27;;;2.55;;
72904;SDS011;61048;52.162;4.516;2023-10-13T11:50:12;8.35;;;2.97;;
72904;SDS011;61048;52.162;4.516;2023-10-13T11:52:51;9.13;;;2.70;;
72904;SDS011;61048;52.162;4.516;2023-10-13T11:55:19;9.98;;;3.25;;
72904;SDS011;61048;52.162;4.516;2023-10-13T11:57:46;8.02;;;2.78;;
72904;SDS011;61048;52.162;4.516;2023-10-13T12:00:13;9.00;;;3.22;;
72904;SDS011;61048;52.162;4.516;2023-10-13T12:03:12;6.72;;;2.33;;
72904;SDS011;61048;52.162;4.516;2023-10-13T12:05:57;5.75;;;2.67;;
72904;SDS011;61048;52.162;4.516;2023-10-13T12:08:44;10.07;;;3.10;;
72904;SDS011;61048;52.162;4.516;2023-10-13T12:11:16;9.00;;;2.72;;
72904;SDS011;61048;52.162;4.516;2023-10-13T12:14:00;9.75;;;4.13;;
72904;SDS011;61048;52.162;4.516;2023-10-13T12:16:36;9.00;;;2.97;;
72904;SDS011;61048;52.162;4.516;2023-10-13T12:19:05;6.65;;;3.22;;
72904;SDS011;61048;52.162;4.516;2023-10-13T12:21:36;7.47;;;2.55;;
72904;SDS011;61048;52.162;4.516;2023-10-13T12:24:08;9.57;;;3.05;;
72904;SDS011;61048;52.162;4.516;2023-10-13T12:26:47;7.45;;;2.90;;
72904;SDS011;61048;52.162;4.516;2023-10-13T12:29:20;8.85;;;3.55;;
72904;SDS011;61048;52.162;4.516;2023-10-13T12:31:48;11.73;;;2.92;;
72904;SDS011;61048;52.162;4.516;2023-10-13T12:34:27;5.63;;;2.50;;
72904;SDS011;61048;52.162;4.516;2023-10-13T12:37:17;11.15;;;3.58;;
72904;SDS011;61048;52.162;4.516;2023-10-13T12:40:03;5.60;;;2.55;;
72904;SDS011;61048;52.162;4.516;2023-10-13T12:42:48;14.25;;;3.20;;
72904;SDS011;61048;52.162;4.516;2023-10-13T12:45:33;8.85;;;2.70;;
72904;SDS011;61048;52.162;4.516;2023-10-13T12:48:18;9.60;;;2.78;;
72904;SDS011;61048;52.162;4.516;2023-10-13T12:51:06;10.68;;;3.20;;
72904;SDS011;61048;52.162;4.516;2023-10-13T12:53:45;10.15;;;3.00;;
72904;SDS011;61048;52.162;4.516;2023-10-13T12:56:13;10.55;;;3.70;;
72904;SDS011;61048;52.162;4.516;2023-10-13T12:58:40;9.88;;;2.85;;
72904;SDS011;61048;52.162;4.516;2023-10-13T13:01:16;7.40;;;3.17;;
72904;SDS011;61048;52.162;4.516;2023-10-13T13:03:45;11.93;;;3.22;;
72904;SDS011;61048;52.162;4.516;2023-10-13T13:06:18;8.00;;;2.80;;
72904;SDS011;61048;52.162;4.516;2023-10-13T13:08:50;8.82;;;3.72;;
72904;SDS011;61048;52.162;4.516;2023-10-13T13:11:17;7.03;;;2.90;;
72904;SDS011;61048;52.162;4.516;2023-10-13T13:13:44;9.57;;;2.95;;
72904;SDS011;61048;52.162;4.516;2023-10-13T13:16:12;5.70;;;2.60;;
72904;SDS011;61048;52.162;4.516;2023-10-13T13:18:39;10.80;;;2.70;;
72904;SDS011;61048;52.162;4.516;2023-10-13T13:21:08;8.50;;;2.70;;
72904;SDS011;61048;52.162;4.516;2023-10-13T13:23:38;6.80;;;2.60;;
72904;SDS011;61048;52.162;4.516;2023-10-13T13:26:06;7.72;;;2.75;;
72904;SDS011;61048;52.162;4.516;2023-10-13T13:28:40;9.38;;;3.80;;
72904;SDS011;61048;52.162;4.516;2023-10-13T13:31:08;8.75;;;2.95;;
72904;SDS011;61048;52.162;4.516;2023-10-13T13:33:40;10.45;;;2.55;;
72904;SDS011;61048;52.162;4.516;2023-10-13T13:36:08;9.60;;;3.08;;
72904;SDS011;61048;52.162;4.516;2023-10-13T13:38:40;10.93;;;3.22;;
72904;SDS011;61048;52.162;4.516;2023-10-13T13:41:11;9.52;;;3.08;;
72904;SDS011;61048;52.162;4.516;2023-10-13T13:43:41;8.68;;;3.45;;
72904;SDS011;61048;52.162;4.516;2023-10-13T13:46:20;7.05;;;3.00;;
72904;SDS011;61048;52.162;4.516;2023-10-13T13:48:50;11.85;;;3.00;;
72904;SDS011;61048;52.162;4.516;2023-10-13T13:51:22;10.40;;;2.90;;
72904;SDS011;61048;52.162;4.516;2023-10-13T13:53:54;10.52;;;2.42;;
72904;SDS011;61048;52.162;4.516;2023-10-13T13:56:22;11.48;;;3.55;;
72904;SDS011;61048;52.162;4.516;2023-10-13T13:58:50;8.25;;;2.78;;
72904;SDS011;61048;52.162;4.516;2023-10-13T14:01:18;8.23;;;3.20;;
72904;SDS011;61048;52.162;4.516;2023-10-13T14:03:47;10.27;;;2.67;;
72904;SDS011;61048;52.162;4.516;2023-10-13T14:06:15;11.68;;;3.45;;
72904;SDS011;61048;52.162;4.516;2023-10-13T14:08:48;9.57;;;3.28;;
72904;SDS011;61048;52.162;4.516;2023-10-13T14:11:17;9.40;;;2.70;;
72904;SDS011;61048;52.162;4.516;2023-10-13T14:14:10;7.25;;;2.58;;
72904;SDS011;61048;52.162;4.516;2023-10-13T14:16:54;9.98;;;3.00;;
72904;SDS011;61048;52.162;4.516;2023-10-13T14:21:58;8.80;;;2.75;;
72904;SDS011;61048;52.162;4.516;2023-10-13T14:24:31;7.38;;;2.47;;
72904;SDS011;61048;52.162;4.516;2023-10-13T14:27:01;9.63;;;2.22;;
72904;SDS011;61048;52.162;4.516;2023-10-13T14:29:34;6.50;;;2.33;;
72904;SDS011;61048;52.162;4.516;2023-10-13T14:32:05;10.75;;;3.03;;
72904;SDS011;61048;52.162;4.516;2023-10-13T14:34:37;7.25;;;2.25;;
72904;SDS011;61048;52.162;4.516;2023-10-13T14:37:04;9.18;;;2.72;;
72904;SDS011;61048;52.162;4.516;2023-10-13T14:39:31;9.23;;;2.53;;
72904;SDS011;61048;52.162;4.516;2023-10-13T14:42:01;10.90;;;2.97;;
72904;SDS011;61048;52.162;4.516;2023-10-13T14:44:30;7.68;;;1.90;;
72904;SDS011;61048;52.162;4.516;2023-10-13T14:46:58;10.10;;;2.53;;
72904;SDS011;61048;52.162;4.516;2023-10-13T14:49:25;12.73;;;2.25;;
72904;SDS011;61048;52.162;4.516;2023-10-13T14:51:52;11.82;;;2.00;;
72904;SDS011;61048;52.162;4.516;2023-10-13T14:54:22;11.75;;;2.25;;
72904;SDS011;61048;52.162;4.516;2023-10-13T14:56:58;9.10;;;1.98;;
72904;SDS011;61048;52.162;4.516;2023-10-13T14:59:27;6.03;;;1.95;;
72904;SDS011;61048;52.162;4.516;2023-10-13T15:01:58;7.32;;;1.88;;
72904;SDS011;61048;52.162;4.516;2023-10-13T15:04:26;8.48;;;1.80;;
72904;SDS011;61048;52.162;4.516;2023-10-13T15:06:57;7.35;;;1.52;;
72904;SDS011;61048;52.162;4.516;2023-10-13T15:09:27;6.53;;;1.67;;
72904;SDS011;61048;52.162;4.516;2023-10-13T15:11:54;9.77;;;1.80;;
72904;SDS011;61048;52.162;4.516;2023-10-13T15:14:21;7.68;;;1.83;;
72904;SDS011;61048;52.162;4.516;2023-10-13T15:16:50;10.57;;;2.20;;
72904;SDS011;61048;52.162;4.516;2023-10-13T15:19:18;12.48;;;1.90;;
72904;SDS011;61048;52.162;4.516;2023-10-13T15:21:45;7.50;;;2.15;;
72904;SDS011;61048;52.162;4.516;2023-10-13T15:24:15;9.52;;;2.33;;
72904;SDS011;61048;52.162;4.516;2023-10-13T15:26:43;9.15;;;2.17;;
72904;SDS011;61048;52.162;4.516;2023-10-13T15:29:13;13.77;;;3.22;;
72904;SDS011;61048;52.162;4.516;2023-10-13T15:31:41;11.27;;;2.92;;
72904;SDS011;61048;52.162;4.516;2023-10-13T15:34:20;12.93;;;3.20;;
72904;SDS011;61048;52.162;4.516;2023-10-13T15:36:48;18.25;;;5.15;;
72904;SDS011;61048;52.162;4.516;2023-10-13T15:39:19;28.40;;;5.10;;